createdAt,value
2023-04-08T00:01:41.251Z,11.10
2023-04-08T00:04:09.824Z,11.10
2023-04-08T00:06:39.058Z,11.10
2023-04-08T00:09:07.049Z,11.10
2023-04-08T00:11:34.992Z,11.10
2023-04-08T00:14:04.840Z,11.00
2023-04-08T00:16:32.944Z,11.00
2023-04-08T00:19:01.279Z,11.10
2023-04-08T00:21:29.664Z,11.10
2023-04-08T00:23:57.608Z,11.10
2023-04-08T00:26:26.435Z,11.10
2023-04-08T00:28:54.425Z,11.00
2023-04-08T00:31:23.834Z,11.10
2023-04-08T00:33:52.089Z,11.00
2023-04-08T00:36:19.990Z,11.00
2023-04-08T00:38:47.994Z,11.00
2023-04-08T00:41:16.080Z,11.00
2023-04-08T00:43:43.988Z,10.90
2023-04-08T00:46:12.160Z,10.90
2023-04-08T00:48:41.547Z,10.90
2023-04-08T00:51:09.663Z,10.90
2023-04-08T00:53:37.692Z,10.90
2023-04-08T00:56:05.870Z,10.90
2023-04-08T00:58:33.853Z,10.90
2023-04-08T01:01:11.504Z,10.90
2023-04-08T01:03:51.339Z,10.90
2023-04-08T01:06:27.063Z,10.90
2023-04-08T01:08:55.449Z,10.90
2023-04-08T01:11:23.919Z,10.90
2023-04-08T01:13:55.581Z,10.90
2023-04-08T01:16:25.377Z,10.90
2023-04-08T01:18:55.927Z,10.80
2023-04-08T01:21:25.776Z,10.80
2023-04-08T01:24:00.941Z,10.90
2023-04-08T01:26:30.737Z,10.90
2023-04-08T01:29:02.686Z,10.80
2023-04-08T01:31:32.082Z,10.80
2023-04-08T01:34:01.844Z,10.80
2023-04-08T01:36:32.702Z,10.80
2023-04-08T01:39:03.019Z,10.80
2023-04-08T01:41:33.563Z,10.80
2023-04-08T01:44:03.201Z,10.70
2023-04-08T01:46:32.390Z,10.70
2023-04-08T01:49:00.947Z,10.70
2023-04-08T01:51:31.854Z,10.70
2023-04-08T01:53:59.776Z,10.70
2023-04-08T01:56:33.996Z,10.70
2023-04-08T01:59:04.760Z,10.70
2023-04-08T02:01:36.337Z,10.70
2023-04-08T02:04:05.174Z,10.70
2023-04-08T02:06:33.645Z,10.70
2023-04-08T02:09:01.796Z,10.70
2023-04-08T02:11:29.700Z,10.70
2023-04-08T02:13:59.375Z,10.70
2023-04-08T02:16:35.064Z,10.60
2023-04-08T02:19:09.014Z,10.60
2023-04-08T02:21:43.488Z,10.60
2023-04-08T02:24:13.786Z,10.60
2023-04-08T02:26:44.981Z,10.60
2023-04-08T02:29:16.902Z,10.60
2023-04-08T02:31:45.937Z,10.60
2023-04-08T02:34:16.006Z,10.60
2023-04-08T02:36:46.154Z,10.50
2023-04-08T02:39:14.101Z,10.60
2023-04-08T02:41:41.918Z,10.60
2023-04-08T02:44:10.515Z,10.50
2023-04-08T02:46:39.775Z,10.50
2023-04-08T02:49:07.670Z,10.50
2023-04-08T02:51:35.547Z,10.50
2023-04-08T02:54:03.394Z,10.50
2023-04-08T02:56:31.231Z,10.50
2023-04-08T02:58:59.143Z,10.50
2023-04-08T03:01:27.099Z,10.50
2023-04-08T03:03:56.508Z,10.50
2023-04-08T03:06:24.391Z,10.50
2023-04-08T03:08:52.338Z,10.50
2023-04-08T03:11:21.520Z,10.50
2023-04-08T03:13:49.364Z,10.50
2023-04-08T03:16:17.300Z,10.50
2023-04-08T03:18:45.262Z,10.50
2023-04-08T03:21:14.869Z,10.50
2023-04-08T03:23:42.747Z,10.40
2023-04-08T03:26:10.617Z,10.40
2023-04-08T03:28:38.656Z,10.40
2023-04-08T03:31:06.798Z,10.40
2023-04-08T03:33:34.752Z,10.40
2023-04-08T03:36:02.745Z,10.40
2023-04-08T03:38:31.980Z,10.40
2023-04-08T03:40:59.985Z,10.30
2023-04-08T03:43:27.946Z,10.30
2023-04-08T03:45:56.862Z,10.30
2023-04-08T03:48:24.742Z,10.30
2023-04-08T03:50:52.612Z,10.30
2023-04-08T03:53:20.593Z,10.30
2023-04-08T03:55:51.932Z,10.30
2023-04-08T03:58:19.831Z,10.30
2023-04-08T04:00:47.681Z,10.30
2023-04-08T04:03:15.793Z,10.30
2023-04-08T04:05:43.746Z,10.20
2023-04-08T04:08:11.708Z,10.20
2023-04-08T04:10:39.557Z,10.20
2023-04-08T04:13:08.860Z,10.20
2023-04-08T04:15:39.578Z,10.20
2023-04-08T04:18:07.597Z,10.20
2023-04-08T04:20:36.272Z,10.20
2023-04-08T04:23:04.168Z,10.20
2023-04-08T04:25:32.003Z,10.30
2023-04-08T04:27:59.836Z,10.20
2023-04-08T04:30:29.457Z,10.20
2023-04-08T04:32:57.644Z,10.20
2023-04-08T04:35:25.672Z,10.20
2023-04-08T04:37:53.788Z,10.20
2023-04-08T04:40:21.671Z,10.20
2023-04-08T04:42:49.597Z,10.20
2023-04-08T04:45:17.668Z,10.20
2023-04-08T04:47:47.081Z,10.20
2023-04-08T04:50:14.982Z,10.20
2023-04-08T04:52:42.849Z,10.20
2023-04-08T04:55:11.098Z,10.20
2023-04-08T04:57:39.004Z,10.20
2023-04-08T05:00:08.847Z,10.20
2023-04-08T05:02:37.084Z,10.10
2023-04-08T05:05:07.272Z,10.10
2023-04-08T05:07:37.449Z,10.10
2023-04-08T05:10:05.981Z,10.10
2023-04-08T05:12:33.944Z,10.10
2023-04-08T05:15:02.238Z,10.10
2023-04-08T05:17:30.388Z,10.10
2023-04-08T05:19:58.264Z,10.00
2023-04-08T05:22:27.592Z,10.00
2023-04-08T05:24:55.401Z,10.00
2023-04-08T05:27:23.268Z,10.00
2023-04-08T05:29:51.220Z,9.90
2023-04-08T05:32:19.073Z,9.90
2023-04-08T05:34:46.956Z,9.90
2023-04-08T05:37:14.956Z,9.90
2023-04-08T05:39:44.168Z,9.90
2023-04-08T05:42:13.816Z,9.90
2023-04-08T05:44:43.909Z,9.90
2023-04-08T05:47:11.940Z,9.80
2023-04-08T05:49:39.988Z,9.80
2023-04-08T05:52:07.877Z,9.80
2023-04-08T05:54:35.814Z,9.80
2023-04-08T05:57:05.345Z,9.80
2023-04-08T05:59:33.223Z,9.70
2023-04-08T06:02:01.215Z,9.80
2023-04-08T06:04:29.195Z,9.80
2023-04-08T06:06:59.655Z,9.80
2023-04-08T06:09:27.565Z,9.80
2023-04-08T06:11:56.793Z,9.80
2023-04-08T06:14:26.046Z,9.80
2023-04-08T06:16:54.766Z,9.80
2023-04-08T06:19:22.700Z,9.80
2023-04-08T06:21:51.448Z,9.90
2023-04-08T06:24:19.416Z,9.90
2023-04-08T06:26:47.949Z,9.80
2023-04-08T06:29:15.836Z,9.90
2023-04-08T06:31:45.100Z,9.90
2023-04-08T06:34:13.034Z,9.90
2023-04-08T06:36:40.896Z,10.00
2023-04-08T06:39:08.945Z,10.00
2023-04-08T06:41:36.855Z,10.00
2023-04-08T06:44:04.809Z,10.00
2023-04-08T06:46:32.706Z,10.10
2023-04-08T06:49:04.442Z,10.00
2023-04-08T06:51:32.599Z,10.10
2023-04-08T06:54:00.534Z,10.10
2023-04-08T06:56:28.385Z,10.10
2023-04-08T06:58:56.212Z,10.10
2023-04-08T07:01:25.008Z,10.20
2023-04-08T07:03:52.996Z,10.20
2023-04-08T07:06:22.422Z,10.30
2023-04-08T07:08:50.568Z,10.30
2023-04-08T07:11:18.584Z,10.30
2023-04-08T07:13:46.525Z,10.30
2023-04-08T07:16:14.616Z,10.30
2023-04-08T07:18:43.922Z,10.40
2023-04-08T07:21:12.688Z,10.40
2023-04-08T07:23:41.925Z,10.40
2023-04-08T07:26:09.914Z,10.40
2023-04-08T07:28:37.876Z,10.40
2023-04-08T07:31:13.101Z,10.40
2023-04-08T07:33:41.415Z,10.40
2023-04-08T07:36:11.389Z,10.40
2023-04-08T07:38:39.808Z,10.40
2023-04-08T07:41:09.061Z,10.50
2023-04-08T07:43:37.438Z,10.40
2023-04-08T07:46:06.017Z,10.40
2023-04-08T07:48:34.703Z,10.40
2023-04-08T07:51:09.775Z,10.40
2023-04-08T07:53:39.612Z,10.50
2023-04-08T07:56:14.038Z,10.50
2023-04-08T07:58:42.687Z,10.60
2023-04-08T08:01:18.731Z,10.60
2023-04-08T08:03:47.933Z,10.70
2023-04-08T08:06:16.265Z,10.70
2023-04-08T08:08:44.363Z,10.80
2023-04-08T08:11:13.722Z,10.90
2023-04-08T08:13:41.687Z,11.00
2023-04-08T08:16:11.437Z,11.10
2023-04-08T08:18:40.111Z,11.20
2023-04-08T08:21:08.620Z,11.40
2023-04-08T08:23:37.444Z,11.60
2023-04-08T08:26:07.610Z,11.60
2023-04-08T08:28:37.116Z,11.60
2023-04-08T08:31:06.124Z,11.70
2023-04-08T08:33:34.683Z,11.80
2023-04-08T08:36:04.721Z,11.70
2023-04-08T08:38:32.780Z,11.70
2023-04-08T08:41:01.592Z,11.80
2023-04-08T08:43:33.381Z,11.80
2023-04-08T08:46:03.709Z,11.80
2023-04-08T08:48:32.926Z,11.80
2023-04-08T08:51:01.112Z,11.80
2023-04-08T08:53:35.124Z,11.80
2023-04-08T08:58:34.932Z,12.00
2023-04-08T09:01:04.281Z,12.10
2023-04-08T09:03:32.625Z,12.20
2023-04-08T09:06:02.190Z,12.30
2023-04-08T09:08:32.426Z,12.40
2023-04-08T09:11:14.186Z,12.50
2023-04-08T09:13:42.360Z,12.50
2023-04-08T09:16:14.165Z,12.60
2023-04-08T09:18:44.669Z,12.60
2023-04-08T09:21:14.034Z,12.50
2023-04-08T09:23:43.827Z,12.70
2023-04-08T09:26:13.255Z,12.80
2023-04-08T09:28:42.404Z,12.90
2023-04-08T09:31:22.655Z,13.00
2023-04-08T09:33:51.459Z,13.10
2023-04-08T09:36:20.662Z,13.10
2023-04-08T09:38:48.978Z,13.20
2023-04-08T09:41:18.031Z,13.30
2023-04-08T09:43:50.410Z,13.40
2023-04-08T09:46:20.603Z,13.40
2023-04-08T09:48:59.617Z,13.50
2023-04-08T09:51:33.357Z,13.40
2023-04-08T09:54:03.693Z,13.40
2023-04-08T09:56:42.040Z,13.30
2023-04-08T09:59:15.129Z,13.20
2023-04-08T10:01:47.376Z,13.20
2023-04-08T10:04:20.951Z,13.10
2023-04-08T10:06:53.798Z,13.10
2023-04-08T10:09:23.256Z,13.00
2023-04-08T10:11:51.555Z,12.90
2023-04-08T10:14:21.624Z,12.90
2023-04-08T10:16:49.533Z,12.80
2023-04-08T10:19:41.892Z,12.80
2023-04-08T10:22:47.956Z,12.70
2023-04-08T10:25:31.048Z,12.70
2023-04-08T10:27:59.242Z,12.60
2023-04-08T10:30:46.227Z,12.50
2023-04-08T10:33:16.981Z,12.50
2023-04-08T10:35:50.998Z,12.40
2023-04-08T10:38:19.311Z,12.40
2023-04-08T10:40:48.739Z,12.40
2023-04-08T10:43:17.126Z,12.40
2023-04-08T10:45:48.592Z,12.40
2023-04-08T10:48:18.822Z,12.40
2023-04-08T10:50:54.958Z,12.40
2023-04-08T10:53:28.259Z,12.40
2023-04-08T10:55:56.431Z,12.40
2023-04-08T10:58:24.400Z,12.30
2023-04-08T11:00:52.648Z,12.40
2023-04-08T11:03:20.824Z,12.40
2023-04-08T11:05:51.694Z,12.40
2023-04-08T11:08:21.054Z,12.40
2023-04-08T11:10:49.782Z,12.30
2023-04-08T11:13:17.997Z,12.30
2023-04-08T11:15:46.030Z,12.20
2023-04-08T11:18:14.571Z,12.20
2023-04-08T11:20:44.893Z,12.20
2023-04-08T11:23:15.710Z,12.20
2023-04-08T11:25:44.533Z,12.20
2023-04-08T11:28:13.056Z,12.20
2023-04-08T11:30:42.771Z,12.20
2023-04-08T11:33:11.176Z,12.10
2023-04-08T11:35:42.143Z,12.10
2023-04-08T11:38:10.956Z,12.10
2023-04-08T11:40:40.287Z,12.10
2023-04-08T11:43:11.809Z,12.10
2023-04-08T11:45:40.502Z,12.10
2023-04-08T11:48:12.089Z,12.00
2023-04-08T11:50:40.016Z,12.10
2023-04-08T11:53:18.351Z,12.00
2023-04-08T11:55:48.476Z,12.00
2023-04-08T11:58:16.808Z,12.00
2023-04-08T12:00:45.645Z,12.00
2023-04-08T12:03:14.185Z,11.90
2023-04-08T12:05:42.616Z,11.90
2023-04-08T12:08:10.641Z,11.90
2023-04-08T12:10:39.043Z,11.90
2023-04-08T12:13:08.566Z,11.80
2023-04-08T12:15:36.504Z,11.90
2023-04-08T12:18:04.615Z,11.90
2023-04-08T12:20:32.570Z,11.90
2023-04-08T12:23:01.554Z,11.90
2023-04-08T12:25:31.377Z,11.90
2023-04-08T12:27:59.273Z,11.90
2023-04-08T12:30:28.512Z,11.90
2023-04-08T12:32:57.759Z,12.00
2023-04-08T12:35:25.895Z,12.00
2023-04-08T12:37:53.996Z,12.00
2023-04-08T12:40:21.963Z,11.90
2023-04-08T12:42:49.823Z,11.90
2023-04-08T12:45:17.732Z,11.90
2023-04-08T12:47:47.056Z,11.90
2023-04-08T12:50:15.832Z,11.90
2023-04-08T12:52:43.853Z,11.80
2023-04-08T12:55:12.077Z,11.80
2023-04-08T12:57:40.201Z,11.90
2023-04-08T13:00:09.474Z,11.90
2023-04-08T13:02:37.523Z,11.90
2023-04-08T13:05:07.374Z,11.90
2023-04-08T13:07:35.289Z,11.90
2023-04-08T13:10:03.589Z,11.90
2023-04-08T13:12:32.147Z,11.90
2023-04-08T13:15:00.321Z,11.90
2023-04-08T13:17:28.408Z,11.90
2023-04-08T13:19:56.328Z,11.90
2023-04-08T13:22:25.551Z,11.90
2023-04-08T13:24:53.486Z,12.00
2023-04-08T13:27:21.570Z,12.00
2023-04-08T13:29:49.427Z,12.10
2023-04-08T13:32:17.313Z,12.20
2023-04-08T13:34:45.246Z,12.20
2023-04-08T13:37:13.166Z,12.20
2023-04-08T13:39:42.430Z,12.20
2023-04-08T13:42:10.364Z,12.20
2023-04-08T13:44:38.388Z,12.20
2023-04-08T13:47:06.430Z,12.20
2023-04-08T13:49:34.411Z,12.20
2023-04-08T13:52:02.471Z,12.20
2023-04-08T13:54:30.999Z,12.20
2023-04-08T13:57:01.084Z,12.20
2023-04-08T13:59:29.009Z,12.20
2023-04-08T14:01:57.013Z,12.20
2023-04-08T14:04:24.969Z,12.20
2023-04-08T14:06:53.209Z,12.20
2023-04-08T14:09:21.622Z,12.20
2023-04-08T14:11:49.522Z,12.20
2023-04-08T14:14:18.953Z,12.20
2023-04-08T14:16:46.910Z,12.20
2023-04-08T14:19:15.316Z,12.10
2023-04-08T14:21:43.420Z,12.10
2023-04-08T14:24:11.411Z,12.10
2023-04-08T14:26:39.378Z,12.00
2023-04-08T14:29:08.569Z,12.00
2023-04-08T14:31:37.767Z,12.00
2023-04-08T14:34:05.768Z,12.00
2023-04-08T14:36:33.763Z,12.00
2023-04-08T14:39:01.859Z,12.00
2023-04-08T14:41:29.700Z,12.00
2023-04-08T14:43:57.701Z,12.00
2023-04-08T14:46:28.900Z,11.90
2023-04-08T14:48:58.832Z,11.90
2023-04-08T14:51:26.785Z,12.00
2023-04-08T14:53:54.705Z,11.90
2023-04-08T14:56:22.576Z,11.90
2023-04-08T14:58:50.740Z,11.90
2023-04-08T15:01:18.824Z,11.90
2023-04-08T15:03:47.390Z,12.00
2023-04-08T15:06:18.664Z,11.90
2023-04-08T15:08:46.750Z,12.00
2023-04-08T15:11:14.671Z,11.90
2023-04-08T15:13:42.584Z,11.90
2023-04-08T15:16:10.549Z,11.90
2023-04-08T15:18:38.456Z,11.80
2023-04-08T15:21:07.086Z,11.80
2023-04-08T15:23:40.565Z,11.80
2023-04-08T15:26:08.643Z,11.70
2023-04-08T15:28:37.852Z,11.70
2023-04-08T15:31:06.411Z,11.70
2023-04-08T15:33:34.371Z,11.70
2023-04-08T15:36:04.231Z,11.70
2023-04-08T15:38:33.573Z,11.70
2023-04-08T15:41:03.325Z,11.70
2023-04-08T15:43:31.533Z,11.70
2023-04-08T15:45:59.507Z,11.70
2023-04-08T15:48:27.335Z,11.70
2023-04-08T15:50:55.303Z,11.60
2023-04-08T15:53:23.250Z,11.60
2023-04-08T15:55:51.198Z,11.60
2023-04-08T15:58:20.486Z,11.60
2023-04-08T16:00:48.438Z,11.60
2023-04-08T16:03:16.685Z,11.60
2023-04-08T16:05:44.664Z,11.50
2023-04-08T16:08:12.521Z,11.50
2023-04-08T16:10:40.467Z,11.60
2023-04-08T16:13:08.606Z,11.50
2023-04-08T16:15:38.176Z,11.50
2023-04-08T16:18:07.759Z,11.50
2023-04-08T16:20:38.280Z,11.50
2023-04-08T16:23:06.242Z,11.50
2023-04-08T16:25:34.078Z,11.50
2023-04-08T16:28:02.070Z,11.50
2023-04-08T16:30:30.088Z,11.50
2023-04-08T16:32:59.419Z,11.50
2023-04-08T16:35:27.316Z,11.50
2023-04-08T16:37:55.471Z,11.50
2023-04-08T16:40:23.515Z,11.40
2023-04-08T16:42:51.412Z,11.40
2023-04-08T16:45:19.486Z,11.40
2023-04-08T16:47:47.477Z,11.40
2023-04-08T16:50:17.250Z,11.40
2023-04-08T16:52:49.436Z,11.40
2023-04-08T16:55:17.736Z,11.40
2023-04-08T16:57:45.862Z,11.40
2023-04-08T17:00:16.852Z,11.40
2023-04-08T17:02:46.212Z,11.40
2023-04-08T17:05:15.840Z,11.30
2023-04-08T17:07:43.717Z,11.30
2023-04-08T17:10:11.886Z,11.30
2023-04-08T17:12:39.838Z,11.30
2023-04-08T17:15:08.979Z,11.30
2023-04-08T17:17:36.875Z,11.30
2023-04-08T17:20:05.228Z,11.20
2023-04-08T17:22:34.584Z,11.20
2023-04-08T17:25:02.473Z,11.20
2023-04-08T17:27:30.376Z,11.20
2023-04-08T17:29:58.442Z,11.10
2023-04-08T17:32:27.147Z,11.10
2023-04-08T17:34:55.593Z,11.10
2023-04-08T17:37:23.473Z,11.10
2023-04-08T17:39:52.770Z,11.10
2023-04-08T17:42:22.700Z,11.10
2023-04-08T17:44:50.649Z,11.10
2023-04-08T17:47:18.530Z,11.10
2023-04-08T17:49:46.420Z,11.00
2023-04-08T17:52:14.463Z,11.00
2023-04-08T17:54:42.487Z,11.00
2023-04-08T17:57:11.800Z,11.00
2023-04-08T17:59:39.895Z,11.00
2023-04-08T18:02:08.022Z,11.00
2023-04-08T18:04:36.001Z,11.00
2023-04-08T18:07:05.317Z,11.00
2023-04-08T18:09:33.290Z,11.00
2023-04-08T18:12:01.190Z,11.00
2023-04-08T18:14:30.866Z,10.90
2023-04-08T18:16:58.840Z,11.00
2023-04-08T18:19:27.017Z,10.90
2023-04-08T18:21:55.256Z,10.90
2023-04-08T18:24:23.234Z,10.90
2023-04-08T18:27:01.509Z,10.90
2023-04-08T18:29:33.072Z,10.90
2023-04-08T18:32:01.053Z,10.90
2023-04-08T18:34:28.914Z,10.90
2023-04-08T18:36:56.784Z,10.80
2023-04-08T18:39:24.690Z,10.80
2023-04-08T18:41:52.528Z,10.80
2023-04-08T18:44:20.567Z,10.70
2023-04-08T18:46:49.868Z,10.70
2023-04-08T18:49:17.729Z,10.70
2023-04-08T18:51:58.969Z,10.60
2023-04-08T18:54:29.573Z,10.60
2023-04-08T18:56:57.614Z,10.60
2023-04-08T18:59:27.756Z,10.60
2023-04-08T19:01:57.492Z,10.50
2023-04-08T19:04:25.735Z,10.50
2023-04-08T19:06:53.634Z,10.50
2023-04-08T19:09:21.574Z,10.50
2023-04-08T19:11:49.478Z,10.50
2023-04-08T19:14:17.498Z,10.50
2023-04-08T19:16:46.131Z,10.50
2023-04-08T19:19:16.201Z,10.60
2023-04-08T19:21:44.189Z,10.60
2023-04-08T19:24:12.120Z,10.50
2023-04-08T19:26:40.062Z,10.50
2023-04-08T19:29:09.421Z,10.50
2023-04-08T19:31:37.611Z,10.50
2023-04-08T19:34:05.688Z,10.50
2023-04-08T19:36:34.950Z,10.50
2023-04-08T19:39:03.564Z,10.40
2023-04-08T19:41:31.448Z,10.40
2023-04-08T19:43:59.348Z,10.40
2023-04-08T19:46:29.076Z,10.40
2023-04-08T19:48:58.670Z,10.40
2023-04-08T19:51:27.432Z,10.40
2023-04-08T19:53:56.659Z,10.40
2023-04-08T19:56:25.554Z,10.40
2023-04-08T19:58:53.701Z,10.40
2023-04-08T20:01:22.288Z,10.40
2023-04-08T20:03:52.179Z,10.40
2023-04-08T20:06:21.544Z,10.40
2023-04-08T20:08:50.183Z,10.40
2023-04-08T20:11:19.879Z,10.40
2023-04-08T20:13:49.162Z,10.30
2023-04-08T20:16:17.256Z,10.30
2023-04-08T20:18:45.152Z,10.30
2023-04-08T20:21:14.661Z,10.30
2023-04-08T20:23:44.925Z,10.30
2023-04-08T20:26:13.339Z,10.30
2023-04-08T20:28:44.644Z,10.30
2023-04-08T20:31:13.145Z,10.30
2023-04-08T20:33:43.946Z,10.30
2023-04-08T20:36:13.390Z,10.30
2023-04-08T20:38:42.361Z,10.20
2023-04-08T20:41:10.444Z,10.30
2023-04-08T20:43:39.446Z,10.20
2023-04-08T20:46:09.221Z,10.20
2023-04-08T20:48:37.183Z,10.20
2023-04-08T20:51:05.340Z,10.10
2023-04-08T20:53:34.448Z,10.10
2023-04-08T20:56:02.628Z,10.10
2023-04-08T20:58:30.553Z,10.10
2023-04-08T21:00:58.907Z,10.00
2023-04-08T21:03:28.382Z,10.00
2023-04-08T21:05:56.817Z,10.10
2023-04-08T21:08:24.683Z,10.00
2023-04-08T21:10:54.084Z,10.00
2023-04-08T21:13:22.000Z,10.00
2023-04-08T21:15:49.941Z,10.10
2023-04-08T21:18:20.891Z,10.00
2023-04-08T21:20:50.292Z,10.00
2023-04-08T21:23:18.161Z,10.00
2023-04-08T21:25:46.146Z,10.00
2023-04-08T21:28:14.049Z,10.00
2023-04-08T21:30:41.969Z,10.00
2023-04-08T21:33:10.134Z,10.00
2023-04-08T21:35:38.115Z,10.00
2023-04-08T21:38:07.594Z,10.00
2023-04-08T21:40:35.487Z,10.00
2023-04-08T21:43:03.383Z,10.00
2023-04-08T21:45:31.358Z,10.00
2023-04-08T21:47:59.320Z,10.00
2023-04-08T21:50:27.218Z,10.00
2023-04-08T21:52:55.130Z,9.90
2023-04-08T21:55:24.468Z,9.90
2023-04-08T21:57:52.410Z,9.90
2023-04-08T22:00:20.369Z,9.90
2023-04-08T22:02:48.653Z,9.90
2023-04-08T22:05:16.911Z,9.90
2023-04-08T22:07:44.780Z,9.90
2023-04-08T22:10:12.813Z,9.90
2023-04-08T22:12:42.064Z,9.90
2023-04-08T22:15:11.293Z,9.90
2023-04-08T22:17:39.213Z,9.90
2023-04-08T22:20:08.165Z,9.90
2023-04-08T22:22:36.463Z,9.90
2023-04-08T22:25:04.421Z,9.90
2023-04-08T22:27:32.609Z,9.90
2023-04-08T22:30:01.945Z,9.90
2023-04-08T22:32:29.878Z,9.80
2023-04-08T22:34:57.749Z,9.80
2023-04-08T22:37:25.672Z,9.80
2023-04-08T22:39:53.677Z,9.80
2023-04-08T22:42:21.678Z,9.80
2023-04-08T22:44:49.595Z,9.80
2023-04-08T22:47:19.182Z,9.80
2023-04-08T22:49:47.055Z,9.70
2023-04-08T22:52:14.980Z,9.70
2023-04-08T22:54:42.907Z,9.70
2023-04-08T22:57:10.916Z,9.70
2023-04-08T22:59:38.789Z,9.70
2023-04-08T23:02:06.723Z,9.70
2023-04-08T23:04:36.010Z,9.70
2023-04-08T23:07:03.855Z,9.70
2023-04-08T23:09:31.845Z,9.70
2023-04-08T23:11:59.720Z,9.70
2023-04-08T23:14:27.627Z,9.70
2023-04-08T23:16:55.576Z,9.70
2023-04-08T23:19:23.471Z,9.70
2023-04-08T23:21:52.667Z,9.70
2023-04-08T23:24:20.558Z,9.70
2023-04-08T23:26:49.262Z,9.70
2023-04-08T23:29:17.142Z,9.70
2023-04-08T23:31:45.276Z,9.70
2023-04-08T23:34:13.140Z,9.70
2023-04-08T23:36:41.059Z,9.70
2023-04-08T23:39:10.300Z,9.70
2023-04-08T23:41:38.178Z,9.70
2023-04-08T23:44:06.463Z,9.70
2023-04-08T23:46:34.384Z,9.60
2023-04-08T23:49:02.299Z,9.70
2023-04-08T23:51:31.276Z,9.70
2023-04-08T23:53:59.195Z,9.60
2023-04-08T23:56:28.408Z,9.60
2023-04-08T23:58:56.348Z,9.60
